createdAt,value
2023-05-22T00:00:04.186Z,21.15
2023-05-22T00:02:30.847Z,21.13
2023-05-22T00:04:59.079Z,21.12
2023-05-22T00:07:25.659Z,21.11
2023-05-22T00:09:52.234Z,21.09
2023-05-22T00:12:18.793Z,21.07
2023-05-22T00:14:45.478Z,21.03
2023-05-22T00:17:12.079Z,21.02
2023-05-22T00:19:38.747Z,21.00
2023-05-22T00:22:06.868Z,20.98
2023-05-22T00:24:33.430Z,20.96
2023-05-22T00:27:00.065Z,20.95
2023-05-22T00:29:26.769Z,20.93
2023-05-22T00:31:53.344Z,20.90
2023-05-22T00:34:20.023Z,20.87
2023-05-22T00:36:46.777Z,20.85
2023-05-22T00:39:14.720Z,20.83
2023-05-22T00:41:41.330Z,20.81
2023-05-22T00:44:08.009Z,20.79
2023-05-22T00:46:35.038Z,20.78
2023-05-22T00:49:01.741Z,20.77
2023-05-22T00:51:28.453Z,20.74
2023-05-22T00:53:55.571Z,20.72
2023-05-22T00:56:24.187Z,20.69
2023-05-22T00:58:50.889Z,20.67
2023-05-22T01:01:17.628Z,20.63
2023-05-22T01:03:45.673Z,20.61
2023-05-22T01:06:13.414Z,20.60
2023-05-22T01:08:40.739Z,20.57
2023-05-22T01:11:14.463Z,20.54
2023-05-22T01:13:51.671Z,20.50
2023-05-22T01:16:24.835Z,20.48
2023-05-22T01:18:59.180Z,20.45
2023-05-22T01:21:35.682Z,20.43
2023-05-22T01:24:32.986Z,20.41
2023-05-22T01:27:29.566Z,20.37
2023-05-22T01:30:12.525Z,20.34
2023-05-22T01:32:43.057Z,20.30
2023-05-22T01:35:11.211Z,20.25
2023-05-22T01:37:38.924Z,20.20
2023-05-22T01:40:07.482Z,20.18
2023-05-22T01:42:34.836Z,20.15
2023-05-22T01:45:01.510Z,20.10
2023-05-22T01:47:28.203Z,20.09
2023-05-22T01:49:56.160Z,20.04
2023-05-22T01:52:30.911Z,20.00
2023-05-22T01:55:00.693Z,19.97
2023-05-22T01:57:32.438Z,19.88
2023-05-22T02:00:06.641Z,19.83
2023-05-22T02:02:36.376Z,19.77
2023-05-22T02:05:06.220Z,19.72
2023-05-22T02:07:36.528Z,19.66
2023-05-22T02:10:04.432Z,19.61
2023-05-22T02:12:31.316Z,19.54
2023-05-22T02:14:58.044Z,19.50
2023-05-22T02:17:24.664Z,19.44
2023-05-22T02:19:51.278Z,19.38
2023-05-22T02:22:19.212Z,19.33
2023-05-22T02:24:48.362Z,19.24
2023-05-22T02:27:14.931Z,19.20
2023-05-22T02:29:41.636Z,19.14
2023-05-22T02:32:08.401Z,19.09
2023-05-22T02:34:34.960Z,19.05
2023-05-22T02:37:01.687Z,19.02
2023-05-22T02:39:29.734Z,18.97
2023-05-22T02:41:56.311Z,18.91
2023-05-22T02:44:22.911Z,18.86
2023-05-22T02:46:49.569Z,18.81
2023-05-22T02:49:16.170Z,18.77
2023-05-22T02:51:42.719Z,18.73
2023-05-22T02:54:09.275Z,18.69
2023-05-22T02:56:37.191Z,18.64
2023-05-22T02:59:03.731Z,18.60
2023-05-22T03:01:30.348Z,18.58
2023-05-22T03:03:57.096Z,18.55
2023-05-22T03:06:23.806Z,18.51
2023-05-22T03:08:50.365Z,18.49
2023-05-22T03:11:16.953Z,18.48
2023-05-22T03:13:45.035Z,18.48
2023-05-22T03:16:11.656Z,18.47
2023-05-22T03:18:38.269Z,18.46
2023-05-22T03:21:05.210Z,18.45
2023-05-22T03:23:32.079Z,18.44
2023-05-22T03:25:58.685Z,18.43
2023-05-22T03:28:25.382Z,18.46
2023-05-22T03:30:53.411Z,18.45
2023-05-22T03:33:20.022Z,18.44
2023-05-22T03:35:46.645Z,18.47
2023-05-22T03:38:13.430Z,18.49
2023-05-22T03:40:40.196Z,18.51
2023-05-22T03:43:06.979Z,18.51
2023-05-22T03:45:33.726Z,18.53
2023-05-22T03:48:02.004Z,18.56
2023-05-22T03:50:28.632Z,18.58
2023-05-22T03:52:55.262Z,18.64
2023-05-22T03:55:21.830Z,18.74
2023-05-22T03:57:48.413Z,18.87
2023-05-22T04:00:15.979Z,19.03
2023-05-22T04:02:42.681Z,19.20
2023-05-22T04:05:10.791Z,19.43
2023-05-22T04:07:37.441Z,19.72
2023-05-22T04:10:04.542Z,20.03
2023-05-22T04:12:31.211Z,20.48
2023-05-22T04:14:57.812Z,21.00
2023-05-22T04:17:26.176Z,21.35
2023-05-22T04:19:52.758Z,21.44
2023-05-22T04:22:20.746Z,21.31
2023-05-22T04:24:47.347Z,21.14
2023-05-22T04:27:14.029Z,20.95
2023-05-22T04:29:40.626Z,20.74
2023-05-22T04:32:07.817Z,20.58
2023-05-22T04:34:34.405Z,20.47
2023-05-22T04:37:00.952Z,20.41
2023-05-22T04:39:28.955Z,20.35
2023-05-22T04:41:55.586Z,20.31
2023-05-22T04:44:22.189Z,20.28
2023-05-22T04:46:49.106Z,20.22
2023-05-22T04:49:15.773Z,20.24
2023-05-22T04:51:42.372Z,20.28
2023-05-22T04:54:08.947Z,20.26
2023-05-22T04:56:37.508Z,20.19
2023-05-22T04:59:04.358Z,20.19
2023-05-22T05:01:33.083Z,20.14
2023-05-22T05:04:00.710Z,20.13
2023-05-22T05:06:27.510Z,20.14
2023-05-22T05:08:54.137Z,20.15
2023-05-22T05:11:20.773Z,20.13
2023-05-22T05:13:48.725Z,20.11
2023-05-22T05:16:15.371Z,20.14
2023-05-22T05:18:42.038Z,20.14
2023-05-22T05:21:09.090Z,20.10
2023-05-22T05:23:35.639Z,20.11
2023-05-22T05:26:02.280Z,20.16
2023-05-22T05:28:29.153Z,20.24
2023-05-22T05:30:57.087Z,20.28
2023-05-22T05:33:23.678Z,20.35
2023-05-22T05:35:50.259Z,20.42
2023-05-22T05:38:16.867Z,20.49
2023-05-22T05:40:43.493Z,20.65
2023-05-22T05:43:10.328Z,20.81
2023-05-22T05:45:37.040Z,20.94
2023-05-22T05:48:08.213Z,20.95
2023-05-22T05:50:35.053Z,21.01
2023-05-22T05:53:01.878Z,21.11
2023-05-22T05:55:28.427Z,21.16
2023-05-22T05:57:55.125Z,21.25
2023-05-22T06:00:21.762Z,21.22
2023-05-22T06:02:50.518Z,21.28
2023-05-22T06:05:18.936Z,21.26
2023-05-22T06:07:45.681Z,21.25
2023-05-22T06:10:13.048Z,21.28
2023-05-22T06:12:39.911Z,21.28
2023-05-22T06:15:07.519Z,21.30
2023-05-22T06:17:34.312Z,21.39
2023-05-22T06:20:01.178Z,21.50
2023-05-22T06:22:29.309Z,21.62
2023-05-22T06:24:55.950Z,21.62
2023-05-22T06:27:23.204Z,21.59
2023-05-22T06:29:50.359Z,21.65
2023-05-22T06:32:17.355Z,21.73
2023-05-22T06:34:47.290Z,21.75
2023-05-22T06:37:13.915Z,21.75
2023-05-22T06:39:41.891Z,21.77
2023-05-22T06:42:08.529Z,21.84
2023-05-22T06:44:35.125Z,21.93
2023-05-22T06:47:01.848Z,21.99
2023-05-22T06:49:28.428Z,22.05
2023-05-22T06:51:55.130Z,22.12
2023-05-22T06:54:21.754Z,22.18
2023-05-22T06:56:49.722Z,22.18
2023-05-22T06:59:16.331Z,22.24
2023-05-22T07:01:42.917Z,22.36
2023-05-22T07:04:09.774Z,22.47
2023-05-22T07:06:36.365Z,22.50
2023-05-22T07:09:03.067Z,22.53
2023-05-22T07:11:29.695Z,22.60
2023-05-22T07:13:57.745Z,22.67
2023-05-22T07:16:25.640Z,22.58
2023-05-22T07:18:52.280Z,22.54
2023-05-22T07:21:18.976Z,22.56
2023-05-22T07:23:45.542Z,22.61
2023-05-22T07:26:12.369Z,22.65
2023-05-22T07:28:38.982Z,22.78
2023-05-22T07:31:07.016Z,22.94
2023-05-22T07:33:33.676Z,23.14
2023-05-22T07:36:00.269Z,23.31
2023-05-22T07:38:26.909Z,23.35
2023-05-22T07:40:53.467Z,23.40
2023-05-22T07:43:20.041Z,23.42
2023-05-22T07:45:46.640Z,23.57
2023-05-22T07:48:14.703Z,23.65
2023-05-22T07:50:41.284Z,23.75
2023-05-22T07:53:07.971Z,23.95
2023-05-22T07:55:34.521Z,24.00
2023-05-22T07:58:01.106Z,24.10
2023-05-22T08:00:27.689Z,24.24
2023-05-22T08:02:54.585Z,24.33
2023-05-22T08:05:22.738Z,24.45
2023-05-22T08:07:49.453Z,24.50
2023-05-22T08:10:17.738Z,24.56
2023-05-22T08:12:44.709Z,24.52
2023-05-22T08:15:11.857Z,24.50
2023-05-22T08:17:38.902Z,24.44
2023-05-22T08:20:07.312Z,24.37
2023-05-22T08:22:35.494Z,24.38
2023-05-22T08:25:03.669Z,24.47
2023-05-22T08:27:30.403Z,24.60
2023-05-22T08:29:56.985Z,24.72
2023-05-22T08:32:23.595Z,24.76
2023-05-22T08:34:50.283Z,24.84
2023-05-22T08:37:17.087Z,24.96
2023-05-22T08:39:45.169Z,25.06
2023-05-22T08:42:11.806Z,25.14
2023-05-22T08:44:39.149Z,25.23
2023-05-22T08:47:07.124Z,25.27
2023-05-22T08:49:34.130Z,25.26
2023-05-22T08:52:07.727Z,25.30
2023-05-22T08:54:36.762Z,25.38
2023-05-22T08:57:05.846Z,25.53
2023-05-22T08:59:34.469Z,25.63
2023-05-22T09:02:01.990Z,25.68
2023-05-22T09:04:29.460Z,25.83
2023-05-22T09:06:56.109Z,25.94
2023-05-22T09:09:22.959Z,25.94
2023-05-22T09:11:49.752Z,25.91
2023-05-22T09:14:18.697Z,25.83
2023-05-22T09:16:46.217Z,25.74
2023-05-22T09:19:13.309Z,25.69
2023-05-22T09:21:39.997Z,25.78
2023-05-22T09:24:08.095Z,25.87
2023-05-22T09:26:34.739Z,25.89
2023-05-22T09:29:01.688Z,25.95
2023-05-22T09:31:29.984Z,26.08
2023-05-22T09:33:57.841Z,26.17
2023-05-22T09:36:31.151Z,26.18
2023-05-22T09:38:59.558Z,26.22
2023-05-22T09:41:26.187Z,26.24
2023-05-22T09:43:52.851Z,26.25
2023-05-22T09:46:19.506Z,26.33
2023-05-22T09:48:51.429Z,26.36
2023-05-22T09:51:19.378Z,26.34
2023-05-22T09:53:48.751Z,26.45
2023-05-22T09:56:24.239Z,26.56
2023-05-22T09:58:54.270Z,26.61
2023-05-22T10:01:22.383Z,26.64
2023-05-22T10:03:54.266Z,26.65
2023-05-22T10:06:22.467Z,26.69
2023-05-22T10:08:54.346Z,26.65
2023-05-22T10:11:21.966Z,26.68
2023-05-22T10:13:49.860Z,26.74
2023-05-22T10:16:16.848Z,26.78
2023-05-22T10:18:45.983Z,26.87
2023-05-22T10:21:17.314Z,26.97
2023-05-22T10:23:44.249Z,27.04
2023-05-22T10:26:11.355Z,27.10
2023-05-22T10:28:42.640Z,27.15
2023-05-22T10:31:19.190Z,27.18
2023-05-22T10:33:51.458Z,27.16
2023-05-22T10:36:37.122Z,27.10
2023-05-22T10:39:16.362Z,27.15
2023-05-22T10:41:42.995Z,27.15
2023-05-22T10:44:09.887Z,27.14
2023-05-22T10:46:36.636Z,27.23
2023-05-22T10:49:03.648Z,27.36
2023-05-22T10:51:32.765Z,27.45
2023-05-22T10:54:00.627Z,27.44
2023-05-22T10:56:39.014Z,27.36
2023-05-22T10:59:15.323Z,27.38
2023-05-22T11:02:00.340Z,27.48
2023-05-22T11:04:27.056Z,27.54
2023-05-22T11:07:04.570Z,27.54
2023-05-22T11:09:35.364Z,27.51
2023-05-22T11:12:19.103Z,27.50
2023-05-22T11:14:55.418Z,27.46
2023-05-22T11:17:23.615Z,27.37
2023-05-22T11:20:07.269Z,27.34
2023-05-22T11:22:38.720Z,27.37
2023-05-22T11:25:08.678Z,27.37
2023-05-22T11:27:36.183Z,27.51
2023-05-22T11:30:04.136Z,27.61
2023-05-22T11:32:35.137Z,27.71
2023-05-22T11:35:02.207Z,27.85
2023-05-22T11:37:29.191Z,27.99
2023-05-22T11:40:02.448Z,28.00
2023-05-22T11:42:30.248Z,27.96
2023-05-22T11:44:59.960Z,28.07
2023-05-22T11:47:37.186Z,28.32
2023-05-22T11:50:07.788Z,28.60
2023-05-22T11:52:38.161Z,28.73
2023-05-22T11:55:07.795Z,28.85
2023-05-22T11:57:35.457Z,28.88
2023-05-22T12:00:13.350Z,28.91
2023-05-22T12:02:45.517Z,28.78
2023-05-22T12:05:13.072Z,28.65
2023-05-22T12:07:39.982Z,28.63
2023-05-22T12:10:14.655Z,28.75
2023-05-22T12:12:43.250Z,28.76
2023-05-22T12:15:10.581Z,28.85
2023-05-22T12:17:38.015Z,28.73
2023-05-22T12:20:05.455Z,28.67
2023-05-22T12:22:32.481Z,28.74
2023-05-22T12:24:59.515Z,28.90
2023-05-22T12:27:31.638Z,29.07
2023-05-22T12:29:59.495Z,29.26
2023-05-22T12:32:29.656Z,29.41
2023-05-22T12:37:48.327Z,29.70
2023-05-22T12:40:15.088Z,29.82
2023-05-22T12:42:43.255Z,29.94
2023-05-22T12:45:11.246Z,29.98
2023-05-22T12:47:37.998Z,29.97
2023-05-22T12:50:06.263Z,30.02
2023-05-22T12:52:32.840Z,30.06
2023-05-22T12:54:59.412Z,30.17
2023-05-22T12:57:26.068Z,30.18
2023-05-22T12:59:54.073Z,30.11
2023-05-22T13:02:20.738Z,30.15
2023-05-22T13:04:47.458Z,29.99
2023-05-22T13:07:16.932Z,29.93
2023-05-22T13:09:46.227Z,29.96
2023-05-22T13:12:15.265Z,29.95
2023-05-22T13:14:44.572Z,29.92
2023-05-22T13:17:12.650Z,29.94
2023-05-22T13:19:44.503Z,30.07
2023-05-22T13:22:11.189Z,30.23
2023-05-22T13:24:38.283Z,30.31
2023-05-22T13:27:05.260Z,30.40
2023-05-22T13:29:32.451Z,30.48
2023-05-22T13:31:59.314Z,30.41
2023-05-22T13:34:28.658Z,30.29
2023-05-22T13:36:55.492Z,30.28
2023-05-22T13:39:22.329Z,30.42
2023-05-22T13:41:49.051Z,30.47
2023-05-22T13:44:15.672Z,30.48
2023-05-22T13:46:42.677Z,30.53
2023-05-22T13:49:09.489Z,30.43
2023-05-22T13:51:37.484Z,30.38
2023-05-22T13:54:04.957Z,30.43
2023-05-22T13:56:34.709Z,30.47
2023-05-22T13:59:09.188Z,30.36
2023-05-22T14:01:36.308Z,30.22
2023-05-22T14:04:03.275Z,30.08
2023-05-22T14:06:33.161Z,30.10
2023-05-22T14:09:02.566Z,30.08
2023-05-22T14:11:29.234Z,30.28
2023-05-22T14:13:55.845Z,30.47
2023-05-22T14:16:29.013Z,30.54
2023-05-22T14:18:55.722Z,30.61
2023-05-22T14:21:22.431Z,30.66
2023-05-22T14:23:48.966Z,30.56
2023-05-22T14:26:17.018Z,30.33
2023-05-22T14:28:43.800Z,30.29
2023-05-22T14:31:10.497Z,30.34
2023-05-22T14:33:37.160Z,30.46
2023-05-22T14:36:04.133Z,30.49
2023-05-22T14:38:32.208Z,30.57
2023-05-22T14:40:58.862Z,30.69
2023-05-22T14:43:27.086Z,30.73
2023-05-22T14:45:54.545Z,30.74
2023-05-22T14:48:21.174Z,30.69
2023-05-22T14:50:47.869Z,30.65
2023-05-22T14:53:14.652Z,30.60
2023-05-22T14:55:41.634Z,30.62
2023-05-22T14:58:08.368Z,30.70
2023-05-22T15:00:36.345Z,30.74
2023-05-22T15:03:03.597Z,30.80
2023-05-22T15:05:30.403Z,30.76
2023-05-22T15:07:57.229Z,30.74
2023-05-22T15:10:24.090Z,30.73
2023-05-22T15:12:50.780Z,30.76
2023-05-22T15:15:17.708Z,30.75
2023-05-22T15:17:45.861Z,30.74
2023-05-22T15:20:12.941Z,30.70
2023-05-22T15:22:39.714Z,30.69
2023-05-22T15:25:08.395Z,30.53
2023-05-22T15:27:35.743Z,30.37
2023-05-22T15:30:03.365Z,30.28
2023-05-22T15:32:31.973Z,30.23
2023-05-22T15:34:59.966Z,30.18
2023-05-22T15:37:26.983Z,30.07
2023-05-22T15:39:53.595Z,30.03
2023-05-22T15:42:20.254Z,29.94
2023-05-22T15:44:46.841Z,29.85
2023-05-22T15:47:13.486Z,29.83
2023-05-22T15:49:40.214Z,29.72
2023-05-22T15:52:08.218Z,29.69
2023-05-22T15:54:34.786Z,29.53
2023-05-22T15:57:01.366Z,29.49
2023-05-22T15:59:27.902Z,29.42
2023-05-22T16:01:54.651Z,29.42
2023-05-22T16:04:21.271Z,29.33
2023-05-22T16:06:47.858Z,29.23
2023-05-22T16:09:16.050Z,29.12
2023-05-22T16:11:42.632Z,29.06
2023-05-22T16:14:09.325Z,28.94
2023-05-22T16:16:35.948Z,28.86
2023-05-22T16:19:02.628Z,28.80
2023-05-22T16:21:29.226Z,28.67
2023-05-22T16:23:55.840Z,28.59
2023-05-22T16:26:23.817Z,28.57
2023-05-22T16:28:50.399Z,28.45
2023-05-22T16:31:18.980Z,28.35
2023-05-22T16:33:45.892Z,28.32
2023-05-22T16:36:12.494Z,28.29
2023-05-22T16:38:39.148Z,28.29
2023-05-22T16:41:05.786Z,28.29
2023-05-22T16:43:33.798Z,28.26
2023-05-22T16:46:00.368Z,28.24
2023-05-22T16:48:27.052Z,28.23
2023-05-22T16:50:53.635Z,28.16
2023-05-22T16:53:20.280Z,28.13
2023-05-22T16:55:46.922Z,28.10
2023-05-22T16:58:13.532Z,28.17
2023-05-22T17:00:41.853Z,28.19
2023-05-22T17:03:09.334Z,28.18
2023-05-22T17:05:37.345Z,28.12
2023-05-22T17:08:04.232Z,28.09
2023-05-22T17:10:30.820Z,28.08
2023-05-22T17:12:57.501Z,28.02
2023-05-22T17:15:24.081Z,27.91
2023-05-22T17:17:52.276Z,27.81
2023-05-22T17:20:20.695Z,27.73
2023-05-22T17:22:47.242Z,27.65
2023-05-22T17:25:14.006Z,27.53
2023-05-22T17:27:40.741Z,27.43
2023-05-22T17:30:08.332Z,27.34
2023-05-22T17:32:35.131Z,27.26
2023-05-22T17:35:03.522Z,27.18
2023-05-22T17:37:30.099Z,27.07
2023-05-22T17:39:56.768Z,26.95
2023-05-22T17:42:23.395Z,26.86
2023-05-22T17:44:50.055Z,26.81
2023-05-22T17:47:16.783Z,26.78
2023-05-22T17:49:43.436Z,26.73
2023-05-22T17:52:11.507Z,26.66
2023-05-22T17:54:38.059Z,26.55
2023-05-22T17:57:04.804Z,26.48
2023-05-22T17:59:32.645Z,26.42
2023-05-22T18:01:59.518Z,26.39
2023-05-22T18:04:26.270Z,26.32
2023-05-22T18:06:53.105Z,26.23
2023-05-22T18:09:21.246Z,26.17
2023-05-22T18:11:47.911Z,26.11
2023-05-22T18:14:14.673Z,26.02
2023-05-22T18:16:41.281Z,25.95
2023-05-22T18:19:07.924Z,25.86
2023-05-22T18:21:34.770Z,25.77
2023-05-22T18:24:01.431Z,25.67
2023-05-22T18:26:29.519Z,25.60
2023-05-22T18:28:56.151Z,25.54
2023-05-22T18:31:22.741Z,25.45
2023-05-22T18:33:49.309Z,25.36
2023-05-22T18:36:15.915Z,25.28
2023-05-22T18:38:42.621Z,25.17
2023-05-22T18:41:09.252Z,25.07
2023-05-22T18:43:37.207Z,24.97
2023-05-22T18:46:04.297Z,24.87
2023-05-22T18:48:30.908Z,24.73
2023-05-22T18:50:57.961Z,24.65
2023-05-22T18:53:24.850Z,24.54
2023-05-22T18:55:51.448Z,24.46
2023-05-22T18:58:18.047Z,24.37
2023-05-22T19:00:46.046Z,24.27
2023-05-22T19:03:12.691Z,24.19
2023-05-22T19:05:39.617Z,24.10
2023-05-22T19:08:06.320Z,24.01
2023-05-22T19:10:33.227Z,23.92
2023-05-22T19:12:59.965Z,23.82
2023-05-22T19:15:26.717Z,23.73
2023-05-22T19:17:54.898Z,23.64
2023-05-22T19:20:22.585Z,23.54
2023-05-22T19:22:49.162Z,23.48
2023-05-22T19:25:15.724Z,23.39
2023-05-22T19:27:42.350Z,23.31
2023-05-22T19:30:09.615Z,23.23
2023-05-22T19:32:36.250Z,23.12
2023-05-22T19:35:04.711Z,23.05
2023-05-22T19:37:31.342Z,22.97
2023-05-22T19:39:57.957Z,22.89
2023-05-22T19:42:24.541Z,22.79
2023-05-22T19:44:51.131Z,22.71
2023-05-22T19:47:17.749Z,22.63
2023-05-22T19:49:44.350Z,22.54
2023-05-22T19:52:12.298Z,22.47
2023-05-22T19:54:38.861Z,22.38
2023-05-22T19:57:05.929Z,22.29
2023-05-22T19:59:34.122Z,22.21
2023-05-22T20:02:02.575Z,22.14
2023-05-22T20:04:29.202Z,22.07
2023-05-22T20:06:55.778Z,21.99
2023-05-22T20:09:23.794Z,21.93
2023-05-22T20:11:50.351Z,21.87
2023-05-22T20:14:17.014Z,21.80
2023-05-22T20:16:43.732Z,21.74
2023-05-22T20:19:10.577Z,21.67
2023-05-22T20:21:37.361Z,21.61
2023-05-22T20:24:04.281Z,21.55
2023-05-22T20:26:32.258Z,21.48
2023-05-22T20:28:58.889Z,21.41
2023-05-22T20:31:25.475Z,21.35
2023-05-22T20:33:52.101Z,21.30
2023-05-22T20:36:18.721Z,21.23
2023-05-22T20:38:45.339Z,21.15
2023-05-22T20:41:11.959Z,21.09
2023-05-22T20:43:39.911Z,21.02
2023-05-22T20:46:06.465Z,20.96
2023-05-22T20:48:33.159Z,20.90
2023-05-22T20:50:59.706Z,20.84
2023-05-22T20:53:26.264Z,20.78
2023-05-22T20:55:52.896Z,20.72
2023-05-22T20:58:19.675Z,20.67
2023-05-22T21:00:47.732Z,20.63
2023-05-22T21:03:14.494Z,20.55
2023-05-22T21:05:41.408Z,20.51
2023-05-22T21:08:08.162Z,20.46
2023-05-22T21:10:34.715Z,20.43
2023-05-22T21:13:01.401Z,20.38
2023-05-22T21:15:28.011Z,20.35
2023-05-22T21:17:56.093Z,20.31
2023-05-22T21:20:22.770Z,20.28
2023-05-22T21:22:49.342Z,20.23
2023-05-22T21:25:16.025Z,20.19
2023-05-22T21:27:42.734Z,20.16
2023-05-22T21:30:11.932Z,20.13
2023-05-22T21:32:38.813Z,20.10
2023-05-22T21:35:08.102Z,20.07
2023-05-22T21:37:35.072Z,20.03
2023-05-22T21:40:01.772Z,19.99
2023-05-22T21:42:34.738Z,19.96
2023-05-22T21:45:12.686Z,19.93
2023-05-22T21:47:39.429Z,19.88
2023-05-22T21:50:08.261Z,19.85
2023-05-22T21:52:35.054Z,19.82
2023-05-22T21:55:01.679Z,19.79
2023-05-22T21:57:28.305Z,19.76
2023-05-22T21:59:55.119Z,19.75
2023-05-22T22:02:21.752Z,19.74
2023-05-22T22:04:48.391Z,19.72
2023-05-22T22:07:16.577Z,19.72
2023-05-22T22:09:43.202Z,19.71
2023-05-22T22:12:09.964Z,19.70
2023-05-22T22:14:36.548Z,19.69
2023-05-22T22:17:03.348Z,19.67
2023-05-22T22:19:30.023Z,19.66
2023-05-22T22:21:56.823Z,19.64
2023-05-22T22:24:24.755Z,19.65
2023-05-22T22:26:51.387Z,19.62
2023-05-22T22:29:17.960Z,19.59
2023-05-22T22:31:44.948Z,19.58
2023-05-22T22:34:11.538Z,19.55
2023-05-22T22:36:38.160Z,19.56
2023-05-22T22:39:05.023Z,19.59
2023-05-22T22:41:33.014Z,19.60
2023-05-22T22:43:59.601Z,19.61
2023-05-22T22:46:26.286Z,19.65
2023-05-22T22:48:52.887Z,19.65
2023-05-22T22:51:19.542Z,19.66
2023-05-22T22:53:46.119Z,19.67
2023-05-22T22:56:12.829Z,19.69
2023-05-22T22:58:40.797Z,19.71
2023-05-22T23:01:07.418Z,19.72
2023-05-22T23:03:34.048Z,19.74
2023-05-22T23:06:00.698Z,19.74
2023-05-22T23:08:27.388Z,19.75
2023-05-22T23:10:53.944Z,19.76
2023-05-22T23:13:20.638Z,19.78
2023-05-22T23:15:48.646Z,19.78
2023-05-22T23:18:15.347Z,19.78
2023-05-22T23:20:41.963Z,19.78
2023-05-22T23:23:08.698Z,19.77
2023-05-22T23:25:35.380Z,19.77
2023-05-22T23:28:02.008Z,19.76
2023-05-22T23:30:28.740Z,19.74
2023-05-22T23:32:56.701Z,19.73
2023-05-22T23:35:23.379Z,19.70
2023-05-22T23:37:50.008Z,19.70
2023-05-22T23:40:16.735Z,19.68
2023-05-22T23:42:43.255Z,19.65
2023-05-22T23:45:10.217Z,19.62
2023-05-22T23:47:37.062Z,19.59
2023-05-22T23:50:06.198Z,19.56
2023-05-22T23:52:32.828Z,19.52
2023-05-22T23:54:59.396Z,19.51
2023-05-22T23:57:25.944Z,19.47
2023-05-22T23:59:52.488Z,19.44
